createdAt,value
2018-07-07T00:00:22.497Z,1017.77
2018-07-07T00:01:22.473Z,1017.80
2018-07-07T00:02:22.449Z,1017.84
2018-07-07T00:03:22.422Z,1017.77
2018-07-07T00:04:22.400Z,1017.87
2018-07-07T00:05:22.370Z,1017.82
2018-07-07T00:06:22.344Z,1017.87
2018-07-07T00:07:22.319Z,1017.87
2018-07-07T00:08:22.296Z,1017.88
2018-07-07T00:09:22.271Z,1017.86
2018-07-07T00:10:22.244Z,1017.84
2018-07-07T00:11:22.219Z,1017.92
2018-07-07T00:12:22.193Z,1017.87
2018-07-07T00:13:22.168Z,1017.91
2018-07-07T00:14:22.142Z,1017.87
2018-07-07T00:15:22.122Z,1017.91
2018-07-07T00:16:22.093Z,1017.84
2018-07-07T00:17:22.064Z,1017.91
2018-07-07T00:18:22.038Z,1017.92
2018-07-07T00:19:22.013Z,1017.92
2018-07-07T00:20:21.992Z,1017.95
2018-07-07T00:21:21.966Z,1017.90
2018-07-07T00:22:21.948Z,1017.83
2018-07-07T00:23:21.912Z,1017.87
2018-07-07T00:24:21.887Z,1017.88
2018-07-07T00:25:21.865Z,1017.87
2018-07-07T00:26:21.834Z,1017.83
2018-07-07T00:27:21.808Z,1017.87
2018-07-07T00:28:21.785Z,1017.76
2018-07-07T00:29:21.960Z,1017.86
2018-07-07T00:30:21.735Z,1017.92
2018-07-07T00:31:21.706Z,1017.93
2018-07-07T00:32:21.685Z,1017.94
2018-07-07T00:33:21.656Z,1017.92
2018-07-07T00:34:21.632Z,1017.87
2018-07-07T00:35:21.606Z,1017.82
2018-07-07T00:36:21.579Z,1017.87
2018-07-07T00:37:22.768Z,1017.98
2018-07-07T00:38:21.528Z,1017.92
2018-07-07T00:39:21.503Z,1017.85
2018-07-07T00:40:21.477Z,1017.89
2018-07-07T00:41:21.452Z,1017.85
2018-07-07T00:42:21.428Z,1017.85
2018-07-07T00:43:21.401Z,1017.97
2018-07-07T00:44:21.375Z,1017.92
2018-07-07T00:45:21.351Z,1017.91
2018-07-07T00:46:21.326Z,1017.91
2018-07-07T00:47:21.305Z,1017.90
2018-07-07T00:48:21.274Z,1017.93
2018-07-07T00:49:22.098Z,1017.91
2018-07-07T00:50:21.221Z,1017.97
2018-07-07T00:51:21.195Z,1017.97
2018-07-07T00:52:21.170Z,1017.98
2018-07-07T00:53:21.151Z,1017.93
2018-07-07T00:54:21.146Z,1017.94
2018-07-07T00:55:21.096Z,1017.97
2018-07-07T00:56:21.070Z,1017.99
2018-07-07T00:57:21.043Z,1017.94
2018-07-07T00:58:21.016Z,1017.88
2018-07-07T00:59:20.992Z,1017.97
2018-07-07T01:00:20.966Z,1017.99
2018-07-07T01:01:20.941Z,1018.04
2018-07-07T01:02:20.915Z,1018.00
2018-07-07T01:03:20.889Z,1017.97
2018-07-07T01:04:20.871Z,1017.98
2018-07-07T01:05:20.844Z,1018.05
2018-07-07T01:06:21.019Z,1018.02
2018-07-07T01:07:20.939Z,1018.02
2018-07-07T01:08:20.764Z,1018.02
2018-07-07T01:09:20.770Z,1018.01
2018-07-07T01:10:20.712Z,1018.03
2018-07-07T01:11:20.685Z,1018.07
2018-07-07T01:12:20.659Z,1018.03
2018-07-07T01:13:20.637Z,1018.06
2018-07-07T01:14:20.612Z,1018.05
2018-07-07T01:15:20.589Z,1018.05
2018-07-07T01:16:20.559Z,1018.05
2018-07-07T01:17:20.533Z,1018.08
2018-07-07T01:18:20.512Z,1018.09
2018-07-07T01:19:20.484Z,1018.08
2018-07-07T01:20:20.467Z,1018.09
2018-07-07T01:21:20.430Z,1018.07
2018-07-07T01:22:20.405Z,1018.15
2018-07-07T01:23:20.379Z,1018.01
2018-07-07T01:24:20.354Z,1018.09
2018-07-07T01:25:20.343Z,1018.07
2018-07-07T01:26:20.305Z,1018.01
2018-07-07T01:27:20.288Z,1018.06
2018-07-07T01:28:20.258Z,1018.01
2018-07-07T01:29:20.236Z,1018.04
2018-07-07T01:30:20.351Z,1018.01
2018-07-07T01:31:20.175Z,1018.02
2018-07-07T01:32:20.149Z,1018.00
2018-07-07T01:33:20.125Z,1017.98
2018-07-07T01:34:20.103Z,1017.99
2018-07-07T01:35:20.073Z,1018.02
2018-07-07T01:36:20.050Z,1017.99
2018-07-07T01:37:20.025Z,1018.03
2018-07-07T01:38:20.003Z,1018.03
2018-07-07T01:39:19.973Z,1017.98
2018-07-07T01:40:19.951Z,1017.94
2018-07-07T01:41:19.921Z,1017.94
2018-07-07T01:42:19.896Z,1017.98
2018-07-07T01:43:19.874Z,1017.91
2018-07-07T01:44:19.844Z,1017.90
2018-07-07T01:45:19.825Z,1017.89
2018-07-07T01:46:19.794Z,1017.90
2018-07-07T01:47:19.769Z,1017.90
2018-07-07T01:48:19.744Z,1017.93
2018-07-07T01:49:19.717Z,1017.84
2018-07-07T01:50:19.690Z,1017.83
2018-07-07T01:51:19.665Z,1017.89
2018-07-07T01:52:19.641Z,1017.84
2018-07-07T01:53:19.620Z,1017.88
2018-07-07T01:54:19.592Z,1017.78
2018-07-07T01:55:19.565Z,1017.87
2018-07-07T01:56:19.539Z,1017.85
2018-07-07T01:57:19.515Z,1017.89
2018-07-07T01:58:19.487Z,1017.83
2018-07-07T01:59:19.961Z,1017.76
2018-07-07T02:00:19.439Z,1017.90
2018-07-07T02:01:19.413Z,1017.81
2018-07-07T02:02:19.389Z,1017.90
2018-07-07T02:03:19.361Z,1017.91
2018-07-07T02:04:19.338Z,1017.94
2018-07-07T02:05:19.311Z,1017.95
2018-07-07T02:06:19.285Z,1017.89
2018-07-07T02:07:19.258Z,1017.82
2018-07-07T02:08:19.233Z,1017.91
2018-07-07T02:09:19.206Z,1017.89
2018-07-07T02:10:19.186Z,1017.89
2018-07-07T02:11:19.155Z,1017.91
2018-07-07T02:12:19.129Z,1017.93
2018-07-07T02:13:19.107Z,1017.95
2018-07-07T02:14:19.081Z,1018.00
2018-07-07T02:15:19.055Z,1017.95
2018-07-07T02:16:19.034Z,1017.95
2018-07-07T02:17:19.003Z,1018.02
2018-07-07T02:18:18.977Z,1017.98
2018-07-07T02:19:18.952Z,1017.98
2018-07-07T02:20:18.924Z,1017.98
2018-07-07T02:21:18.900Z,1017.99
2018-07-07T02:22:18.875Z,1017.96
2018-07-07T02:23:18.856Z,1017.98
2018-07-07T02:24:18.823Z,1017.99
2018-07-07T02:25:18.803Z,1018.02
2018-07-07T02:26:18.776Z,1018.07
2018-07-07T02:27:18.750Z,1017.98
2018-07-07T02:28:18.725Z,1017.95
2018-07-07T02:29:18.847Z,1018.06
2018-07-07T02:30:18.672Z,1017.97
2018-07-07T02:31:18.648Z,1017.97
2018-07-07T02:32:18.623Z,1017.99
2018-07-07T02:33:18.597Z,1018.00
2018-07-07T02:34:18.575Z,1017.97
2018-07-07T02:35:18.695Z,1017.99
2018-07-07T02:36:18.519Z,1017.98
2018-07-07T02:37:18.497Z,1017.93
2018-07-07T02:38:18.477Z,1017.92
2018-07-07T02:39:18.446Z,1017.98
2018-07-07T02:40:18.419Z,1017.97
2018-07-07T02:41:18.390Z,1017.96
2018-07-07T02:42:18.365Z,1018.04
2018-07-07T02:43:18.339Z,1018.01
2018-07-07T02:44:18.315Z,1018.01
2018-07-07T02:45:18.290Z,1018.01
2018-07-07T02:46:18.404Z,1018.03
2018-07-07T02:47:18.238Z,1018.05
2018-07-07T02:48:18.213Z,1018.06
2018-07-07T02:49:18.190Z,1017.97
2018-07-07T02:50:18.164Z,1017.99
2018-07-07T02:51:18.136Z,1018.08
2018-07-07T02:52:18.112Z,1018.10
2018-07-07T02:53:18.084Z,1018.06
2018-07-07T02:54:18.061Z,1018.04
2018-07-07T02:55:18.033Z,1018.13
2018-07-07T02:56:18.008Z,1018.16
2018-07-07T02:57:18.187Z,1018.12
2018-07-07T02:58:17.959Z,1018.09
2018-07-07T02:59:17.933Z,1018.11
2018-07-07T03:00:17.914Z,1018.11
2018-07-07T03:01:17.896Z,1018.10
2018-07-07T03:02:17.855Z,1018.15
2018-07-07T03:03:17.894Z,1018.12
2018-07-07T03:04:17.842Z,1018.14
2018-07-07T03:05:17.781Z,1018.14
2018-07-07T03:06:17.755Z,1018.11
2018-07-07T03:07:17.729Z,1018.17
2018-07-07T03:08:17.705Z,1018.16
2018-07-07T03:09:17.681Z,1018.18
2018-07-07T03:10:17.655Z,1018.20
2018-07-07T03:11:17.628Z,1018.25
2018-07-07T03:12:17.602Z,1018.17
2018-07-07T03:13:17.579Z,1018.15
2018-07-07T03:14:17.550Z,1018.20
2018-07-07T03:15:17.525Z,1018.21
2018-07-07T03:16:17.498Z,1018.22
2018-07-07T03:17:17.475Z,1018.16
2018-07-07T03:18:17.449Z,1018.19
2018-07-07T03:19:17.424Z,1018.19
2018-07-07T03:20:17.401Z,1018.19
2018-07-07T03:21:17.371Z,1018.12
2018-07-07T03:22:17.348Z,1018.17
2018-07-07T03:23:17.320Z,1018.23
2018-07-07T03:24:17.294Z,1018.23
2018-07-07T03:25:17.269Z,1018.25
2018-07-07T03:26:17.244Z,1018.27
2018-07-07T03:27:17.218Z,1018.27
2018-07-07T03:28:17.193Z,1018.24
2018-07-07T03:29:17.195Z,1018.28
2018-07-07T03:30:17.149Z,1018.28
2018-07-07T03:31:17.118Z,1018.34
2018-07-07T03:32:17.096Z,1018.30
2018-07-07T03:33:17.069Z,1018.29
2018-07-07T03:34:17.042Z,1018.28
2018-07-07T03:35:17.015Z,1018.29
2018-07-07T03:36:16.989Z,1018.28
2018-07-07T03:37:16.967Z,1018.32
2018-07-07T03:38:16.943Z,1018.35
2018-07-07T03:39:16.915Z,1018.35
2018-07-07T03:40:16.889Z,1018.37
2018-07-07T03:41:16.865Z,1018.40
2018-07-07T03:42:16.899Z,1018.36
2018-07-07T03:43:16.813Z,1018.45
2018-07-07T03:44:16.789Z,1018.43
2018-07-07T03:45:16.761Z,1018.37
2018-07-07T03:46:16.743Z,1018.32
2018-07-07T03:47:16.709Z,1018.30
2018-07-07T03:48:16.685Z,1018.33
2018-07-07T03:49:16.687Z,1018.42
2018-07-07T03:50:16.635Z,1018.32
2018-07-07T03:51:16.611Z,1018.37
2018-07-07T03:52:16.586Z,1018.34
2018-07-07T03:53:16.558Z,1018.32
2018-07-07T03:54:16.534Z,1018.42
2018-07-07T03:55:16.511Z,1018.34
2018-07-07T03:56:16.482Z,1018.32
2018-07-07T03:57:16.458Z,1018.46
2018-07-07T03:58:16.434Z,1018.48
2018-07-07T03:59:16.407Z,1018.57
2018-07-07T04:00:16.382Z,1018.55
2018-07-07T04:01:16.358Z,1018.52
2018-07-07T04:02:16.330Z,1018.56
2018-07-07T04:03:16.304Z,1018.56
2018-07-07T04:04:16.279Z,1018.62
2018-07-07T04:05:16.257Z,1018.68
2018-07-07T04:06:16.231Z,1018.74
2018-07-07T04:07:16.246Z,1018.78
2018-07-07T04:08:16.181Z,1018.76
2018-07-07T04:09:16.158Z,1018.78
2018-07-07T04:10:16.129Z,1018.76
2018-07-07T04:11:16.103Z,1018.75
2018-07-07T04:12:16.080Z,1018.73
2018-07-07T04:13:16.053Z,1018.74
2018-07-07T04:14:16.179Z,1018.74
2018-07-07T04:15:16.007Z,1018.72
2018-07-07T04:16:15.981Z,1018.71
2018-07-07T04:17:15.959Z,1018.72
2018-07-07T04:18:15.932Z,1018.64
2018-07-07T04:19:15.908Z,1018.72
2018-07-07T04:20:15.888Z,1018.75
2018-07-07T04:21:15.857Z,1018.77
2018-07-07T04:22:15.834Z,1018.78
2018-07-07T04:23:15.809Z,1018.63
2018-07-07T04:24:15.784Z,1018.76
2018-07-07T04:25:15.763Z,1018.68
2018-07-07T04:26:15.738Z,1018.76
2018-07-07T04:27:15.712Z,1018.74
2018-07-07T04:28:15.691Z,1018.81
2018-07-07T04:29:15.666Z,1018.76
2018-07-07T04:30:15.644Z,1018.76
2018-07-07T04:31:15.621Z,1018.85
2018-07-07T04:32:15.594Z,1018.84
2018-07-07T04:33:15.571Z,1018.84
2018-07-07T04:34:15.546Z,1018.81
2018-07-07T04:35:15.522Z,1018.88
2018-07-07T04:36:15.499Z,1018.86
2018-07-07T04:37:15.477Z,1018.92
2018-07-07T04:38:15.505Z,1018.84
2018-07-07T04:39:15.430Z,1018.88
2018-07-07T04:40:15.405Z,1018.89
2018-07-07T04:41:15.382Z,1018.86
2018-07-07T04:42:15.359Z,1018.94
2018-07-07T04:43:15.333Z,1018.89
2018-07-07T04:44:15.315Z,1018.74
2018-07-07T04:45:15.293Z,1018.77
2018-07-07T04:46:15.267Z,1018.93
2018-07-07T04:47:15.245Z,1018.99
2018-07-07T04:48:15.219Z,1019.01
2018-07-07T04:49:15.198Z,1019.02
2018-07-07T04:50:15.176Z,1019.19
2018-07-07T04:51:15.159Z,1019.21
2018-07-07T04:52:15.134Z,1019.25
2018-07-07T04:53:15.106Z,1019.30
2018-07-07T04:54:15.082Z,1019.31
2018-07-07T04:55:15.059Z,1019.31
2018-07-07T04:56:15.038Z,1019.28
2018-07-07T04:57:15.016Z,1019.43
2018-07-07T04:58:14.992Z,1019.46
2018-07-07T04:59:14.968Z,1019.47
2018-07-07T05:00:14.947Z,1019.49
2018-07-07T05:01:15.075Z,1019.50
2018-07-07T05:02:14.905Z,1019.68
2018-07-07T05:03:14.879Z,1019.71
2018-07-07T05:04:14.860Z,1019.86
2018-07-07T05:05:14.833Z,1020.04
2018-07-07T05:06:14.815Z,1020.39
2018-07-07T05:07:14.788Z,1021.39
2018-07-07T05:08:14.765Z,1021.79
2018-07-07T05:09:14.750Z,1021.07
2018-07-07T05:10:14.725Z,1019.86
2018-07-07T05:11:14.705Z,1019.33
2018-07-07T05:12:14.682Z,1019.32
2018-07-07T05:13:14.656Z,1019.30
2018-07-07T05:14:14.633Z,1019.15
2018-07-07T05:15:14.816Z,1019.24
2018-07-07T05:16:14.790Z,1019.26
2018-07-07T05:17:14.589Z,1019.33
2018-07-07T05:18:14.545Z,1019.38
2018-07-07T05:19:14.572Z,1019.31
2018-07-07T05:20:14.501Z,1019.43
2018-07-07T05:21:14.481Z,1019.32
2018-07-07T05:22:14.460Z,1019.34
2018-07-07T05:23:14.437Z,1019.35
2018-07-07T05:24:14.414Z,1019.29
2018-07-07T05:25:14.391Z,1019.25
2018-07-07T05:26:14.369Z,1019.32
2018-07-07T05:27:14.349Z,1019.18
2018-07-07T05:28:14.327Z,1019.32
2018-07-07T05:29:14.306Z,1019.32
2018-07-07T05:30:14.288Z,1019.33
2018-07-07T05:31:14.265Z,1019.34
2018-07-07T05:32:14.244Z,1019.35
2018-07-07T05:33:14.224Z,1019.35
2018-07-07T05:34:14.201Z,1019.39
2018-07-07T05:35:14.187Z,1019.44
2018-07-07T05:36:14.162Z,1019.36
2018-07-07T05:37:14.157Z,1019.39
2018-07-07T05:38:14.113Z,1019.40
2018-07-07T05:39:14.091Z,1019.38
2018-07-07T05:40:14.070Z,1019.40
2018-07-07T05:41:14.052Z,1019.30
2018-07-07T05:42:14.031Z,1019.38
2018-07-07T05:43:14.015Z,1019.19
2018-07-07T05:44:13.989Z,1019.48
2018-07-07T05:45:13.964Z,1019.41
2018-07-07T05:46:13.945Z,1019.49
2018-07-07T05:47:13.923Z,1019.36
2018-07-07T05:48:13.903Z,1019.46
2018-07-07T05:49:13.891Z,1019.48
2018-07-07T05:50:13.860Z,1019.46
2018-07-07T05:51:13.839Z,1019.38
2018-07-07T05:52:13.820Z,1019.51
2018-07-07T05:53:13.801Z,1019.64
2018-07-07T05:54:13.783Z,1019.52
2018-07-07T05:55:13.759Z,1019.65
2018-07-07T05:56:13.943Z,1019.65
2018-07-07T05:57:13.921Z,1019.84
2018-07-07T05:58:13.695Z,1019.73
2018-07-07T05:59:13.675Z,1019.90
2018-07-07T06:00:13.855Z,1019.94
2018-07-07T06:01:55.989Z,1019.94
2018-07-07T06:02:55.769Z,1020.06
2018-07-07T06:03:55.748Z,1020.18
2018-07-07T06:04:55.727Z,1020.30
2018-07-07T06:05:55.708Z,1020.35
2018-07-07T06:06:55.686Z,1020.20
2018-07-07T06:07:55.668Z,1020.33
2018-07-07T06:08:55.648Z,1020.21
2018-07-07T06:09:55.629Z,1019.79
2018-07-07T06:10:55.603Z,1020.23
2018-07-07T06:11:55.582Z,1020.29
2018-07-07T06:12:55.565Z,1020.35
2018-07-07T06:13:55.543Z,1020.12
2018-07-07T06:14:55.525Z,1020.28
2018-07-07T06:15:55.503Z,1020.28
2018-07-07T06:16:55.483Z,1020.36
2018-07-07T06:17:55.464Z,1020.23
2018-07-07T06:18:55.443Z,1020.29
2018-07-07T06:19:55.423Z,1018.90
2018-07-07T06:20:55.406Z,1020.49
2018-07-07T06:21:55.380Z,1020.20
2018-07-07T06:22:55.359Z,1020.28
2018-07-07T06:23:55.340Z,1019.66
2018-07-07T06:24:55.321Z,1020.42
2018-07-07T06:25:55.302Z,1020.37
2018-07-07T06:26:55.289Z,1020.38
2018-07-07T06:27:55.261Z,1020.26
2018-07-07T06:28:55.241Z,1020.39
2018-07-07T06:29:55.221Z,1020.33
2018-07-07T06:30:55.201Z,1020.36
2018-07-07T06:31:55.185Z,1020.39
2018-07-07T06:32:55.161Z,1020.54
2018-07-07T06:33:55.344Z,1020.49
2018-07-07T06:34:55.125Z,1020.43
2018-07-07T06:35:55.101Z,1020.46
2018-07-07T06:36:55.290Z,1020.47
2018-07-07T06:38:37.419Z,1020.57
2018-07-07T06:40:19.557Z,1020.40
2018-07-07T06:41:19.335Z,1020.45
2018-07-07T06:42:19.314Z,1020.51
2018-07-07T06:43:19.297Z,1020.48
2018-07-07T06:44:19.278Z,1020.42
2018-07-07T06:45:19.259Z,1020.56
2018-07-07T06:46:19.441Z,1020.49
2018-07-07T06:47:19.218Z,1020.54
2018-07-07T06:48:19.202Z,1020.56
2018-07-07T06:49:19.382Z,1020.54
2018-07-07T06:50:19.161Z,1020.51
2018-07-07T06:51:19.145Z,1020.50
2018-07-07T06:52:19.124Z,1020.58
2018-07-07T06:53:19.111Z,1020.61
2018-07-07T06:54:19.087Z,1020.58
2018-07-07T06:55:19.069Z,1020.57
2018-07-07T06:56:19.057Z,1020.44
2018-07-07T06:57:19.034Z,1020.53
2018-07-07T06:58:19.214Z,1020.61
2018-07-07T06:59:18.999Z,1020.59
2018-07-07T07:00:18.975Z,1020.61
2018-07-07T07:01:18.956Z,1020.62
2018-07-07T07:02:18.938Z,1020.61
2018-07-07T07:03:18.970Z,1020.19
2018-07-07T07:04:18.904Z,1020.62
2018-07-07T07:05:18.887Z,1020.08
2018-07-07T07:06:18.872Z,1020.65
2018-07-07T07:07:18.850Z,1019.24
2018-07-07T07:08:18.832Z,1020.72
2018-07-07T07:09:18.815Z,1020.16
2018-07-07T07:10:18.795Z,1019.94
2018-07-07T07:11:18.777Z,1019.44
2018-07-07T07:12:18.761Z,1019.66
2018-07-07T07:13:18.742Z,1020.63
2018-07-07T07:14:18.728Z,1019.38
2018-07-07T07:15:18.712Z,1020.18
2018-07-07T07:16:18.694Z,1019.30
2018-07-07T07:17:18.674Z,1020.43
2018-07-07T07:18:18.658Z,1019.71
2018-07-07T07:19:18.636Z,1020.74
2018-07-07T07:20:18.619Z,1020.76
2018-07-07T07:21:18.600Z,1020.67
2018-07-07T07:22:18.580Z,1020.61
2018-07-07T07:23:18.569Z,1020.69
2018-07-07T07:24:18.547Z,1020.54
2018-07-07T07:25:18.529Z,1020.88
2018-07-07T07:26:18.557Z,1020.34
2018-07-07T07:27:18.495Z,1020.88
2018-07-07T07:28:18.481Z,1020.69
2018-07-07T07:29:18.458Z,1020.81
2018-07-07T07:30:18.642Z,1020.81
2018-07-07T07:31:18.428Z,1020.95
2018-07-07T07:32:18.405Z,1020.73
2018-07-07T07:33:18.386Z,1020.84
2018-07-07T07:34:18.571Z,1020.70
2018-07-07T07:35:18.390Z,1020.81
2018-07-07T07:36:18.336Z,1020.79
2018-07-07T07:37:18.526Z,1020.85
2018-07-07T07:38:18.502Z,1020.90
2018-07-07T07:39:21.106Z,1020.84
2018-07-07T07:44:49.234Z,1020.87
2018-07-07T07:45:49.219Z,1020.70
2018-07-07T07:46:50.413Z,1020.68
2018-07-07T07:47:48.987Z,1020.71
2018-07-07T07:48:48.968Z,1020.71
2018-07-07T07:49:48.950Z,1020.78
2018-07-07T07:50:48.934Z,1020.81
2018-07-07T07:51:48.919Z,1020.77
2018-07-07T07:52:48.983Z,1020.76
2018-07-07T07:53:48.882Z,1020.83
2018-07-07T07:54:48.864Z,1020.78
2018-07-07T07:55:48.854Z,1020.73
2018-07-07T07:56:48.884Z,1020.69
2018-07-07T07:57:48.816Z,1020.43
2018-07-07T07:58:48.800Z,1020.54
2018-07-07T07:59:48.784Z,1020.63
2018-07-07T08:00:48.770Z,1020.71
2018-07-07T08:01:48.751Z,1020.38
2018-07-07T08:02:48.734Z,1019.62
2018-07-07T08:03:48.717Z,1020.44
2018-07-07T08:04:48.751Z,1020.76
2018-07-07T08:05:48.684Z,1019.45
2018-07-07T08:06:48.667Z,1020.24
2018-07-07T08:07:48.663Z,1020.37
2018-07-07T08:08:48.643Z,1020.68
2018-07-07T08:09:48.826Z,1020.68
2018-07-07T08:10:48.604Z,1020.72
2018-07-07T08:11:48.587Z,1020.67
2018-07-07T08:12:48.568Z,1020.73
2018-07-07T08:13:48.758Z,1020.86
2018-07-07T08:14:48.538Z,1020.82
2018-07-07T08:15:48.726Z,1019.82
2018-07-07T08:16:48.505Z,1020.45
2018-07-07T08:17:48.693Z,1020.30
2018-07-07T08:18:49.080Z,1020.95
2018-07-07T08:19:48.660Z,1020.69
2018-07-07T08:20:48.445Z,1019.47
2018-07-07T08:21:48.424Z,1020.83
2018-07-07T08:22:48.434Z,1020.70
2018-07-07T08:23:48.390Z,1020.80
2018-07-07T08:24:48.375Z,1020.60
2018-07-07T08:25:48.560Z,1020.67
2018-07-07T08:26:48.342Z,1020.70
2018-07-07T08:27:48.533Z,1020.76
2018-07-07T08:28:48.316Z,1020.78
2018-07-07T08:29:48.295Z,1020.77
2018-07-07T08:30:48.280Z,1020.57
2018-07-07T08:31:48.474Z,1020.72
2018-07-07T08:32:48.452Z,1020.29
2018-07-07T08:33:48.242Z,1019.40
2018-07-07T08:34:48.218Z,1020.56
2018-07-07T08:35:48.200Z,1020.76
2018-07-07T08:36:48.185Z,1020.52
2018-07-07T08:37:48.177Z,1020.69
2018-07-07T08:38:48.153Z,1020.57
2018-07-07T08:39:48.139Z,1020.57
2018-07-07T08:40:48.129Z,1020.65
2018-07-07T08:41:48.119Z,1020.52
2018-07-07T08:42:48.295Z,1020.57
2018-07-07T08:43:48.278Z,1020.34
2018-07-07T08:44:48.428Z,1020.58
2018-07-07T08:45:48.250Z,1020.48
2018-07-07T08:46:48.036Z,1020.64
2018-07-07T08:47:48.218Z,1020.68
2018-07-07T08:48:48.005Z,1020.63
2018-07-07T08:49:48.186Z,1020.65
2018-07-07T08:50:48.180Z,1020.51
2018-07-07T08:51:48.155Z,1020.56
2018-07-07T08:52:47.943Z,1020.59
2018-07-07T08:53:47.922Z,1020.56
2018-07-07T08:54:47.906Z,1020.49
2018-07-07T08:55:47.898Z,1020.54
2018-07-07T08:56:47.881Z,1020.46
2018-07-07T08:57:47.861Z,1020.50
2018-07-07T08:58:47.847Z,1020.50
2018-07-07T08:59:47.834Z,1020.39
2018-07-07T09:00:47.816Z,1020.54
2018-07-07T09:01:48.003Z,1020.64
2018-07-07T09:02:47.789Z,1020.62
2018-07-07T09:03:47.777Z,1020.53
2018-07-07T09:04:47.958Z,1020.59
2018-07-07T09:05:47.944Z,1019.83
2018-07-07T09:06:47.928Z,1020.73
2018-07-07T09:07:47.970Z,1020.38
2018-07-07T09:08:47.701Z,1020.61
2018-07-07T09:09:47.683Z,1020.51
2018-07-07T09:10:47.667Z,1020.57
2018-07-07T09:11:47.853Z,1020.49
2018-07-07T09:12:47.635Z,1020.34
2018-07-07T09:13:47.621Z,1020.54
2018-07-07T09:14:47.605Z,1020.31
2018-07-07T09:15:47.592Z,1020.44
2018-07-07T09:16:47.578Z,1020.38
2018-07-07T09:17:47.563Z,1020.43
2018-07-07T09:18:47.577Z,1020.43
2018-07-07T09:19:47.561Z,1020.32
2018-07-07T09:20:47.667Z,1020.38
2018-07-07T09:21:47.501Z,1020.28
2018-07-07T09:22:47.487Z,1020.21
2018-07-07T09:23:47.470Z,1020.27
2018-07-07T09:24:47.455Z,1020.38
2018-07-07T09:25:47.443Z,1020.29
2018-07-07T09:26:47.425Z,1020.27
2018-07-07T09:27:47.413Z,1020.28
2018-07-07T09:28:47.399Z,1020.63
2018-07-07T09:30:29.748Z,1020.34
2018-07-07T09:31:29.526Z,1020.60
2018-07-07T09:32:29.510Z,1020.70
2018-07-07T09:33:29.499Z,1019.81
2018-07-07T09:34:29.484Z,1020.48
2018-07-07T09:35:29.468Z,1020.91
2018-07-07T09:36:29.457Z,1020.44
2018-07-07T09:37:29.439Z,1019.44
2018-07-07T09:38:29.424Z,1020.38
2018-07-07T09:39:29.409Z,1020.02
2018-07-07T09:40:29.393Z,1019.70
2018-07-07T09:41:29.381Z,1019.69
2018-07-07T09:42:29.365Z,1019.74
2018-07-07T09:43:29.350Z,1019.41
2018-07-07T09:44:29.336Z,1019.70
2018-07-07T09:45:29.320Z,1019.67
2018-07-07T09:46:29.305Z,1019.31
2018-07-07T09:47:29.491Z,1019.53
2018-07-07T09:48:29.275Z,1019.40
2018-07-07T09:49:29.258Z,1019.71
2018-07-07T09:50:29.247Z,1019.66
2018-07-07T09:51:29.227Z,1019.53
2018-07-07T09:52:29.212Z,1019.69
2018-07-07T09:53:29.201Z,1019.43
2018-07-07T09:54:29.185Z,1019.69
2018-07-07T09:55:29.170Z,1019.69
2018-07-07T09:56:29.159Z,1019.25
2018-07-07T09:57:29.138Z,1019.35
2018-07-07T09:58:29.123Z,1019.51
2018-07-07T09:59:29.107Z,1019.65
2018-07-07T10:00:29.095Z,1019.77
2018-07-07T10:01:29.078Z,1019.75
2018-07-07T10:02:29.063Z,1019.44
2018-07-07T10:03:29.046Z,1019.73
2018-07-07T10:04:29.031Z,1019.90
2018-07-07T10:05:29.019Z,1019.80
2018-07-07T10:06:29.004Z,1019.83
2018-07-07T10:07:29.031Z,1019.64
2018-07-07T10:08:28.974Z,1019.65
2018-07-07T10:09:28.960Z,1019.74
2018-07-07T10:10:28.943Z,1019.35
2018-07-07T10:11:28.927Z,1019.88
2018-07-07T10:12:28.911Z,1019.96
2018-07-07T10:13:28.945Z,1019.81
2018-07-07T10:14:28.886Z,1020.11
2018-07-07T10:15:28.869Z,1019.58
2018-07-07T10:16:28.855Z,1020.08
2018-07-07T10:17:28.839Z,1020.02
2018-07-07T10:18:29.028Z,1019.63
2018-07-07T10:19:28.809Z,1019.66
2018-07-07T10:20:28.796Z,1019.95
2018-07-07T10:21:28.780Z,1020.12
2018-07-07T10:22:28.761Z,1020.03
2018-07-07T10:23:28.745Z,1019.99
2018-07-07T10:24:28.730Z,1020.05
2018-07-07T10:25:28.720Z,1020.07
2018-07-07T10:26:28.702Z,1019.61
2018-07-07T10:27:28.686Z,1020.13
2018-07-07T10:28:28.670Z,1019.94
2018-07-07T10:29:28.654Z,1020.14
2018-07-07T10:30:28.638Z,1020.02
2018-07-07T10:31:28.658Z,1020.03
2018-07-07T10:32:28.607Z,1020.07
2018-07-07T10:33:28.594Z,1020.08
2018-07-07T10:34:28.586Z,1019.98
2018-07-07T10:35:28.566Z,1020.23
2018-07-07T10:36:28.553Z,1019.69
2018-07-07T10:37:28.548Z,1020.07
2018-07-07T10:38:28.518Z,1020.10
2018-07-07T10:39:28.504Z,1020.14
2018-07-07T10:40:28.488Z,1020.25
2018-07-07T10:41:28.487Z,1020.24
2018-07-07T10:42:28.663Z,1019.70
2018-07-07T10:43:28.447Z,1020.07
2018-07-07T10:44:28.433Z,1020.11
2018-07-07T10:45:28.457Z,1019.83
2018-07-07T10:46:28.401Z,1020.06
2018-07-07T10:47:28.500Z,1020.04
2018-07-07T10:48:28.371Z,1020.06
2018-07-07T10:49:28.358Z,1020.14
2018-07-07T10:50:28.342Z,1020.19
2018-07-07T10:51:28.326Z,1020.15
2018-07-07T10:52:28.311Z,1020.13
2018-07-07T10:53:28.502Z,1020.15
2018-07-07T10:54:28.286Z,1020.06
2018-07-07T10:55:28.292Z,1020.20
2018-07-07T10:56:28.255Z,1020.19
2018-07-07T10:57:28.239Z,1020.04
2018-07-07T10:58:28.225Z,1020.27
2018-07-07T10:59:28.210Z,1020.13
2018-07-07T11:00:28.197Z,1020.23
2018-07-07T11:01:28.184Z,1020.21
2018-07-07T11:02:28.222Z,1020.24
2018-07-07T11:03:28.158Z,1020.31
2018-07-07T11:04:28.147Z,1020.13
2018-07-07T11:05:28.131Z,1020.14
2018-07-07T11:06:28.113Z,1020.44
2018-07-07T11:07:28.099Z,1020.10
2018-07-07T11:08:28.085Z,1020.53
2018-07-07T11:09:28.073Z,1020.47
2018-07-07T11:10:28.258Z,1020.34
2018-07-07T11:11:28.243Z,1020.54
2018-07-07T11:12:28.230Z,1020.62
2018-07-07T11:13:28.016Z,1020.69
2018-07-07T11:14:28.009Z,1020.62
2018-07-07T11:15:27.995Z,1020.62
2018-07-07T11:16:27.974Z,1020.67
2018-07-07T11:17:27.959Z,1020.59
2018-07-07T11:18:27.947Z,1020.57
2018-07-07T11:19:27.931Z,1020.72
2018-07-07T11:20:27.920Z,1020.74
2018-07-07T11:21:27.910Z,1020.74
2018-07-07T11:22:28.099Z,1020.79
2018-07-07T11:23:27.876Z,1020.20
2018-07-07T11:24:27.863Z,1020.87
2018-07-07T11:25:27.857Z,1020.89
2018-07-07T11:26:27.838Z,1020.83
2018-07-07T11:27:27.823Z,1020.66
2018-07-07T11:28:27.811Z,1020.87
2018-07-07T11:29:27.794Z,1020.73
2018-07-07T11:30:27.781Z,1020.75
2018-07-07T11:31:27.766Z,1020.77
2018-07-07T11:32:27.755Z,1020.93
2018-07-07T11:33:27.741Z,1020.85
2018-07-07T11:34:27.728Z,1020.68
2018-07-07T11:35:27.714Z,1020.68
2018-07-07T11:36:27.779Z,1020.88
2018-07-07T11:37:27.687Z,1020.39
2018-07-07T11:38:27.674Z,1020.71
2018-07-07T11:39:27.662Z,1020.82
2018-07-07T11:40:27.644Z,1020.86
2018-07-07T11:41:27.631Z,1020.88
2018-07-07T11:42:27.619Z,1020.94
2018-07-07T11:43:27.602Z,1020.83
2018-07-07T11:44:27.589Z,1020.84
2018-07-07T11:45:27.576Z,1020.79
2018-07-07T11:46:27.564Z,1019.98
2018-07-07T11:47:27.550Z,1020.07
2018-07-07T11:48:27.537Z,1020.83
2018-07-07T11:49:27.521Z,1020.81
2018-07-07T11:50:27.517Z,1020.79
2018-07-07T11:51:27.499Z,1020.61
2018-07-07T11:52:27.482Z,1020.43
2018-07-07T11:53:27.465Z,1020.52
2018-07-07T11:54:27.453Z,1020.80
2018-07-07T11:55:27.438Z,1020.51
2018-07-07T11:56:27.428Z,1020.59
2018-07-07T11:57:27.417Z,1020.78
2018-07-07T11:58:27.400Z,1020.60
2018-07-07T11:59:27.387Z,1020.61
2018-07-07T12:00:27.372Z,1020.78
2018-07-07T12:01:27.363Z,1020.33
2018-07-07T12:02:27.343Z,1020.69
2018-07-07T12:03:27.330Z,1020.61
2018-07-07T12:04:27.343Z,1020.55
2018-07-07T12:05:27.316Z,1020.68
2018-07-07T12:06:27.298Z,1020.55
2018-07-07T12:07:27.274Z,1020.67
2018-07-07T12:08:27.290Z,1020.73
2018-07-07T12:09:27.254Z,1020.71
2018-07-07T12:10:27.243Z,1020.25
2018-07-07T12:11:27.332Z,1020.69
2018-07-07T12:12:27.206Z,1020.68